Time;durP1;ratioP1;P1;durP2;ratioP2;P2;SDS_P1;SDS_P2;PMS_P1;PMS_P2;Temp;Humidity;BMP_temperature;BMP_pressure;BME280_temperature;BME280_humidity;BME280_pressure;Samples;Min_cycle;Max_cycle;Signal;HPM_P1;HPM_P2
2023/03/04 00:01:35;;;;;;;18.67;7.55;;;;;;;5.23;67.56;100734.72;5138286;27;20041;-76
2023/03/04 00:04:00;;;;;;;23.63;8.83;;;;;;;5.23;67.42;100735.56;5138497;27;20030;-77
2023/03/04 00:06:25;;;;;;;18.05;6.30;;;;;;;5.28;67.28;100742.22;5139067;27;20289;-76
2023/03/04 00:08:50;;;;;;;11.97;7.03;;;;;;;5.28;67.21;100732.25;5137895;27;20034;-76
2023/03/04 00:11:16;;;;;;;23.33;7.32;;;;;;;5.30;66.70;100727.47;5138681;27;20304;-76
2023/03/04 00:13:41;;;;;;;18.90;7.55;;;;;;;5.31;66.66;100741.84;5138344;27;20034;-75
2023/03/04 00:16:06;;;;;;;18.05;6.82;;;;;;;5.28;66.72;100732.25;5139006;27;20054;-76
2023/03/04 00:18:32;;;;;;;15.77;6.40;;;;;;;5.30;66.78;100718.50;5137746;27;20042;-76
2023/03/04 00:20:57;;;;;;;13.43;6.35;;;;;;;5.29;67.36;100733.09;5138029;27;20088;-76
2023/03/04 00:23:22;;;;;;;16.60;6.03;;;;;;;5.30;67.06;100721.22;5137113;27;20023;-75
2023/03/04 00:25:47;;;;;;;14.10;5.07;;;;;;;5.28;66.61;100723.28;5136908;27;20257;-76
2023/03/04 00:28:13;;;;;;;11.53;5.20;;;;;;;5.32;66.78;100721.84;5135206;27;20413;-76
2023/03/04 00:30:38;;;;;;;21.77;7.67;;;;;;;5.32;66.97;100719.16;5135896;27;20261;-76
2023/03/04 00:33:03;;;;;;;15.32;5.85;;;;;;;5.33;67.15;100727.03;5136343;27;20723;-76
2023/03/04 00:35:28;;;;;;;10.13;4.45;;;;;;;5.40;66.17;100718.09;5137129;27;20101;-75
2023/03/04 00:37:54;;;;;;;15.30;5.50;;;;;;;5.40;66.43;100724.34;5137082;27;20449;-76
2023/03/04 00:40:19;;;;;;;12.95;5.60;;;;;;;5.32;66.88;100716.44;5137085;27;20031;-75
2023/03/04 00:42:44;;;;;;;15.23;5.27;;;;;;;5.23;66.88;100722.03;5137119;27;20031;-76
2023/03/04 00:45:09;;;;;;;10.77;4.33;;;;;;;5.31;66.70;100712.09;5136108;27;20267;-76
2023/03/04 00:47:35;;;;;;;18.98;6.60;;;;;;;5.34;66.14;100714.38;5136404;27;20286;-76
2023/03/04 00:50:00;;;;;;;14.87;4.17;;;;;;;5.36;66.68;100715.00;5136088;27;20076;-76
2023/03/04 00:52:25;;;;;;;16.05;6.20;;;;;;;5.44;66.48;100716.66;5139974;27;20247;-76
2023/03/04 00:54:51;;;;;;;20.90;4.60;;;;;;;5.44;66.00;100709.38;5141693;27;20310;-76
2023/03/04 00:57:16;;;;;;;15.20;5.73;;;;;;;5.46;65.98;100718.13;5139516;27;20087;-76
2023/03/04 00:59:42;;;;;;;11.57;4.50;;;;;;;5.44;66.20;100711.25;5140411;27;20281;-76
2023/03/04 01:02:08;;;;;;;13.35;5.22;;;;;;;5.43;66.30;100709.59;5140098;27;20254;-75
2023/03/04 01:04:33;;;;;;;13.32;3.95;;;;;;;5.45;66.68;100711.03;5139130;27;20379;-76
2023/03/04 01:06:59;;;;;;;9.93;3.55;;;;;;;5.49;66.18;100706.06;5140260;27;20031;-76
2023/03/04 01:09:25;;;;;;;13.20;4.82;;;;;;;5.47;66.21;100706.25;5137603;27;20099;-75
2023/03/04 01:11:51;;;;;;;16.45;5.88;;;;;;;5.46;66.23;100704.59;5139217;27;20027;-76
2023/03/04 01:14:16;;;;;;;16.33;4.38;;;;;;;5.45;65.86;100704.81;5139328;27;20387;-76
2023/03/04 01:16:41;;;;;;;15.45;4.00;;;;;;;5.44;66.19;100701.28;5138997;27;20076;-76
2023/03/04 01:19:06;;;;;;;15.17;5.40;;;;;;;5.51;66.27;100703.16;5136929;27;20118;-76
2023/03/04 01:21:32;;;;;;;10.40;4.93;;;;;;;5.53;65.98;100701.06;5138904;27;20259;-76
2023/03/04 01:23:57;;;;;;;11.73;3.78;;;;;;;5.52;66.58;100697.53;5138236;27;20080;-75
2023/03/04 01:26:22;;;;;;;13.32;3.85;;;;;;;5.50;66.00;100699.59;5138752;27;20030;-76
2023/03/04 01:28:48;;;;;;;15.07;6.18;;;;;;;5.45;66.54;100689.41;5136820;27;20441;-76
2023/03/04 01:31:13;;;;;;;12.38;3.95;;;;;;;5.47;66.14;100691.91;5138627;27;20039;-76
2023/03/04 01:33:38;;;;;;;8.90;3.93;;;;;;;5.44;66.59;100687.75;5138092;27;20026;-75
2023/03/04 01:36:04;;;;;;;17.50;5.60;;;;;;;5.43;66.75;100680.66;5138555;27;20733;-76
2023/03/04 01:38:29;;;;;;;13.43;5.72;;;;;;;5.46;66.08;100685.66;5135623;27;20492;-76
2023/03/04 01:40:54;;;;;;;15.90;5.80;;;;;;;5.46;66.31;100685.66;5137526;27;20035;-76
2023/03/04 01:43:27;;;;;;;14.00;5.15;;;;;;;5.52;66.08;100683.16;5138108;27;20027;-76
2023/03/04 01:45:55;;;;;;;11.57;5.97;;;;;;;5.46;66.36;100685.66;5140438;27;20031;-76
2023/03/04 01:48:25;;;;;;;16.23;5.78;;;;;;;5.47;66.50;100681.09;5139409;27;20479;-76
2023/03/04 01:50:51;;;;;;;33.92;6.85;;;;;;;5.46;67.20;100674.84;5139308;27;20019;-76
2023/03/04 01:53:20;;;;;;;12.80;5.07;;;;;;;5.46;66.55;100677.56;5138936;27;20031;-75
2023/03/04 01:55:46;;;;;;;18.75;6.43;;;;;;;5.47;66.96;100676.50;5140028;27;20022;-76
2023/03/04 01:58:12;;;;;;;13.55;4.75;;;;;;;5.49;66.67;100676.31;5138105;27;20081;-76
2023/03/04 02:00:37;;;;;;;15.82;5.05;;;;;;;5.49;66.82;100677.13;5139079;27;20140;-75
2023/03/04 02:03:10;;;;;;;11.40;4.93;;;;;;;5.51;66.12;100676.09;5138553;27;20026;-76
2023/03/04 02:05:38;;;;;;;17.25;6.70;;;;;;;5.52;66.67;100677.75;5139653;27;20090;-76
2023/03/04 02:08:04;;;;;;;14.57;4.75;;;;;;;5.53;66.79;100668.59;5137213;27;20087;-76
2023/03/04 02:10:30;;;;;;;17.67;7.60;;;;;;;5.38;66.83;100669.66;5138380;27;20026;-76
2023/03/04 02:12:57;;;;;;;16.38;5.97;;;;;;;5.47;66.47;100671.09;5139494;27;20027;-76
2023/03/04 02:15:23;;;;;;;16.17;6.88;;;;;;;5.33;66.97;100669.44;5137910;27;20387;-76
2023/03/04 02:17:49;;;;;;;24.88;5.80;;;;;;;5.43;66.94;100669.84;5137286;27;20042;-76
2023/03/04 02:20:44;;;;;;;19.52;6.00;;;;;;;5.51;66.55;100673.38;5137501;27;20027;-76
2023/03/04 02:23:19;;;;;;;;;;;;;;;5.46;66.71;100664.03;5138793;27;20031;-76
2023/03/04 02:26:14;;;;;;;12.18;4.15;;;;;;;5.53;66.71;100660.50;5137806;27;20428;-76
2023/03/04 02:28:40;;;;;;;;;;;;;;;5.49;66.63;100658.19;5137414;27;20039;-77
2023/03/04 02:31:05;;;;;;;15.57;5.18;;;;;;;5.45;66.78;100656.13;5137476;27;19911;-75
2023/03/04 02:33:32;;;;;;;12.15;5.55;;;;;;;5.46;66.96;100664.03;5137427;27;20015;-76
2023/03/04 02:35:58;;;;;;;11.55;4.47;;;;;;;5.48;66.73;100659.25;5137306;27;20027;-76
2023/03/04 02:38:23;;;;;;;23.23;7.90;;;;;;;5.46;66.57;100655.91;5137405;27;20392;-76
2023/03/04 02:40:52;;;;;;;16.98;6.13;;;;;;;5.49;66.86;100649.25;5139713;27;20040;-76
2023/03/04 02:43:18;;;;;;;23.38;4.93;;;;;;;5.46;67.18;100652.38;5139991;27;20034;-76
2023/03/04 02:45:46;;;;;;;12.60;4.50;;;;;;;5.47;66.93;100649.44;5138872;27;20035;-76
2023/03/04 02:48:12;;;;;;;14.10;5.22;;;;;;;5.54;66.98;100654.88;5139257;27;20081;-77
2023/03/04 02:50:47;;;;;;;13.25;3.35;;;;;;;5.48;66.78;100650.28;5139616;27;20034;-76
2023/03/04 02:53:14;;;;;;;14.75;6.55;;;;;;;5.50;66.95;100648.22;5139667;27;20035;-76
2023/03/04 02:55:41;;;;;;;13.95;4.72;;;;;;;5.09;67.98;100642.78;5139775;27;20445;-76
2023/03/04 02:58:06;;;;;;;16.15;4.72;;;;;;;5.29;67.24;100643.84;5138676;27;20046;-75
2023/03/04 03:00:31;;;;;;;13.85;3.63;;;;;;;5.37;67.54;100638.22;5139844;27;20363;-76
2023/03/04 03:02:57;;;;;;;13.35;4.40;;;;;;;5.45;66.99;100635.28;5139211;27;20091;-76
2023/03/04 03:05:25;;;;;;;12.13;3.75;;;;;;;5.47;67.19;100640.53;5139857;27;20026;-76
2023/03/04 03:07:51;;;;;;;35.08;5.53;;;;;;;5.41;66.64;100631.34;5139567;27;20027;-76
2023/03/04 03:10:16;;;;;;;20.63;4.65;;;;;;;5.22;67.00;100633.03;5139379;27;20041;-75
2023/03/04 03:12:42;;;;;;;18.02;5.10;;;;;;;5.34;66.68;100631.38;5139623;27;20042;-76
2023/03/04 03:15:07;;;;;;;19.47;5.53;;;;;;;5.43;66.82;100636.56;5138805;27;20083;-76
2023/03/04 03:17:33;;;;;;;15.05;5.18;;;;;;;5.53;66.48;100630.72;5138601;27;20254;-76
2023/03/04 03:19:58;;;;;;;21.35;5.13;;;;;;;5.56;66.32;100627.59;5138366;27;20464;-76
2023/03/04 03:22:23;;;;;;;16.48;6.45;;;;;;;5.60;66.25;100636.94;5139433;27;20027;-77
2023/03/04 03:24:48;;;;;;;18.10;5.45;;;;;;;5.57;66.93;100626.56;5139773;27;20430;-76
2023/03/04 03:27:14;;;;;;;21.77;6.13;;;;;;;5.58;66.38;100628.22;5139279;27;20158;-76
2023/03/04 03:29:39;;;;;;;17.63;4.82;;;;;;;5.56;66.77;100627.59;5138676;27;20259;-76
2023/03/04 03:32:04;;;;;;;19.92;5.35;;;;;;;5.55;66.45;100617.81;5138997;27;20119;-76
2023/03/04 03:34:30;;;;;;;18.25;5.20;;;;;;;5.61;65.90;100617.00;5139644;27;20046;-75
2023/03/04 03:36:55;;;;;;;14.38;4.45;;;;;;;5.64;65.82;100627.38;5139189;27;20380;-77
2023/03/04 03:39:21;;;;;;;10.60;6.13;;;;;;;5.57;66.00;100611.16;5138562;27;20035;-76
2023/03/04 03:41:46;;;;;;;18.83;4.57;;;;;;;5.54;66.45;100616.16;5139178;27;20247;-76
2023/03/04 03:44:11;;;;;;;14.05;4.78;;;;;;;5.57;66.50;100618.44;5138291;27;20030;-76
2023/03/04 03:46:37;;;;;;;17.07;5.60;;;;;;;5.58;66.54;100622.81;5139018;27;20023;-76
2023/03/04 03:49:02;;;;;;;17.10;5.60;;;;;;;5.58;66.52;100618.25;5138206;27;20743;-76
2023/03/04 03:51:27;;;;;;;10.95;4.63;;;;;;;5.60;65.99;100618.03;5138489;27;20041;-76
2023/03/04 03:53:52;;;;;;;18.05;3.42;;;;;;;5.55;66.44;100615.94;5138643;27;20036;-76
2023/03/04 03:56:18;;;;;;;16.47;5.30;;;;;;;5.57;66.63;100615.75;5138778;27;20712;-75
2023/03/04 03:58:43;;;;;;;12.52;3.60;;;;;;;5.55;66.62;100618.63;5137869;27;20346;-76
2023/03/04 04:01:08;;;;;;;8.50;2.97;;;;;;;5.57;66.18;100613.03;5138142;27;20038;-75
2023/03/04 04:03:34;;;;;;;12.75;4.35;;;;;;;5.60;66.33;100615.31;5138774;27;20251;-76
2023/03/04 04:06:02;;;;;;;9.60;3.15;;;;;;;5.62;66.38;100618.63;5137648;27;20475;-76
2023/03/04 04:08:28;;;;;;;17.35;3.63;;;;;;;5.59;66.37;100608.25;5139337;27;20069;-76
2023/03/04 04:10:53;;;;;;;10.10;2.90;;;;;;;5.63;65.83;100614.91;5140004;27;20608;-76
2023/03/04 04:13:18;;;;;;;13.32;4.13;;;;;;;5.66;65.94;100617.19;5138038;27;20254;-75
2023/03/04 04:15:44;;;;;;;15.80;4.70;;;;;;;5.61;66.26;100609.69;5139480;27;20031;-76
2023/03/04 04:18:09;;;;;;;20.88;3.45;;;;;;;5.46;66.17;100607.22;5138230;27;20039;-76
2023/03/04 04:20:35;;;;;;;9.37;3.63;;;;;;;5.49;65.79;100606.78;5138340;27;20474;-76
2023/03/04 04:23:01;;;;;;;15.18;5.40;;;;;;;5.51;65.93;100608.47;5136986;27;20914;-76
2023/03/04 04:25:26;;;;;;;15.43;3.72;;;;;;;5.54;65.75;100605.34;5138077;27;20372;-76
2023/03/04 04:27:51;;;;;;;13.63;5.32;;;;;;;5.44;65.77;100601.19;5141939;27;20034;-76
2023/03/04 04:30:17;;;;;;;18.98;3.47;;;;;;;5.51;66.07;100608.47;5142523;27;20023;-76
2023/03/04 04:32:42;;;;;;;11.90;4.03;;;;;;;5.65;65.80;100604.72;5142221;27;20039;-75
2023/03/04 04:35:08;;;;;;;11.38;5.03;;;;;;;5.61;65.59;100611.59;5142454;27;20027;-76
2023/03/04 04:37:33;;;;;;;14.15;4.13;;;;;;;5.60;65.92;100609.91;5142537;27;20442;-76
2023/03/04 04:39:58;;;;;;;10.30;3.90;;;;;;;5.60;66.00;100607.19;5142079;27;20392;-76
2023/03/04 04:42:24;;;;;;;14.02;3.13;;;;;;;5.60;65.96;100610.75;5141795;27;20031;-76
2023/03/04 04:44:49;;;;;;;11.77;4.22;;;;;;;5.56;65.98;100614.91;5142333;27;20030;-76
2023/03/04 04:47:14;;;;;;;6.95;2.28;;;;;;;5.56;65.51;100614.91;5142412;27;20034;-75
2023/03/04 04:49:40;;;;;;;15.68;4.18;;;;;;;5.63;65.25;100611.38;5141501;27;20027;-76
2023/03/04 04:52:05;;;;;;;13.17;3.93;;;;;;;5.58;65.88;100612.81;5142580;27;20096;-76
2023/03/04 04:54:31;;;;;;;15.65;4.28;;;;;;;5.55;65.79;100620.53;5142093;27;20253;-76
2023/03/04 04:56:56;;;;;;;11.50;3.78;;;;;;;5.52;66.55;100619.06;5142346;27;20163;-76
2023/03/04 04:59:21;;;;;;;8.77;3.10;;;;;;;5.43;66.07;100623.84;5142006;27;20488;-76
2023/03/04 05:01:47;;;;;;;11.90;3.08;;;;;;;5.40;66.85;100620.75;5142118;27;20454;-76
2023/03/04 05:04:12;;;;;;;10.13;3.55;;;;;;;5.44;66.71;100617.41;5142034;27;20158;-76
2023/03/04 05:06:38;;;;;;;9.38;2.40;;;;;;;5.46;66.57;100626.16;5141907;27;20520;-76
2023/03/04 05:09:03;;;;;;;7.43;2.45;;;;;;;5.55;66.48;100621.34;5141787;27;20045;-75
2023/03/04 05:11:29;;;;;;;6.28;2.42;;;;;;;5.57;66.71;100621.97;5142411;27;20043;-76
2023/03/04 05:13:54;;;;;;;18.63;3.83;;;;;;;5.46;66.79;100619.91;5141316;27;20046;-76
2023/03/04 05:16:19;;;;;;;11.70;3.83;;;;;;;5.48;66.99;100618.66;5141966;27;20033;-76
2023/03/04 05:18:45;;;;;;;16.13;3.63;;;;;;;5.49;66.89;100616.81;5140285;27;20335;-76
2023/03/04 05:21:11;;;;;;;7.88;2.60;;;;;;;5.38;66.75;100615.56;5142062;27;20623;-76
2023/03/04 05:23:38;;;;;;;6.95;1.77;;;;;;;5.46;67.23;100614.50;5142214;27;20399;-76
2023/03/04 05:26:05;;;;;;;8.65;2.80;;;;;;;5.54;67.06;100613.44;5141510;27;20384;-76
2023/03/04 05:28:31;;;;;;;7.32;2.17;;;;;;;5.61;66.62;100612.38;5140543;27;20407;-76
2023/03/04 05:30:56;;;;;;;9.30;2.25;;;;;;;5.45;67.53;100607.44;5142457;27;20035;-76
2023/03/04 05:33:21;;;;;;;12.90;2.63;;;;;;;5.55;67.34;100607.00;5141492;27;20023;-76
2023/03/04 05:35:47;;;;;;;8.93;2.40;;;;;;;5.47;67.14;100611.56;5141111;27;20038;-76
2023/03/04 05:38:15;;;;;;;12.35;2.50;;;;;;;5.44;67.01;100606.59;5140108;27;20251;-76
2023/03/04 05:40:41;;;;;;;10.18;3.20;;;;;;;5.52;67.19;100602.00;5140980;27;20023;-76
2023/03/04 05:43:06;;;;;;;10.82;2.58;;;;;;;5.57;67.05;100610.34;5140200;27;20023;-76
2023/03/04 05:45:32;;;;;;;4.93;1.65;;;;;;;5.54;66.67;100608.03;5141591;27;20667;-76
2023/03/04 05:47:58;;;;;;;7.30;2.10;;;;;;;5.58;66.87;100607.41;5140353;27;20502;-76
2023/03/04 05:50:23;;;;;;;11.93;2.60;;;;;;;5.66;66.83;100610.94;5140063;27;20799;-76
2023/03/04 05:52:49;;;;;;;22.92;2.33;;;;;;;5.62;66.79;100613.22;5141492;27;20399;-76
2023/03/04 05:55:15;;;;;;;13.40;2.58;;;;;;;5.61;67.14;100606.97;5141298;27;20383;-75
2023/03/04 05:57:41;;;;;;;11.35;2.22;;;;;;;5.57;66.53;100608.44;5140443;27;20392;-76
2023/03/04 06:00:10;;;;;;;7.53;2.73;;;;;;;5.57;66.53;100621.16;5141133;27;20031;-76
2023/03/04 06:02:36;;;;;;;10.38;1.90;;;;;;;5.60;66.71;100620.72;5139087;27;20286;-75
2023/03/04 06:05:02;;;;;;;7.03;1.80;;;;;;;5.62;66.82;100615.94;5140666;27;20023;-76
2023/03/04 06:07:28;;;;;;;14.35;4.15;;;;;;;5.59;66.86;100621.78;5139257;27;20050;-75
2023/03/04 06:09:53;;;;;;;13.75;3.80;;;;;;;5.56;66.91;100620.31;5140867;27;20476;-76
2023/03/04 06:12:18;;;;;;;7.93;2.00;;;;;;;5.57;67.11;100621.16;5140442;27;20023;-76
2023/03/04 06:14:43;;;;;;;20.42;2.03;;;;;;;5.45;67.34;100629.09;5140822;27;20395;-76
2023/03/04 06:17:09;;;;;;;12.30;2.67;;;;;;;5.56;67.16;100628.44;5140639;27;20035;-75
2023/03/04 06:19:34;;;;;;;9.63;2.63;;;;;;;5.52;66.79;100634.47;5139847;27;20636;-75
2023/03/04 06:21:59;;;;;;;9.27;2.55;;;;;;;5.56;66.97;100631.13;5140835;27;20862;-76
2023/03/04 06:24:27;;;;;;;15.37;5.10;;;;;;;5.59;66.93;100638.00;5140453;27;20027;-75
2023/03/04 06:26:52;;;;;;;10.25;2.65;;;;;;;5.58;67.55;100639.03;5140339;27;20260;-75
2023/03/04 06:29:17;;;;;;;10.27;2.88;;;;;;;5.64;66.97;100643.59;5140261;27;20500;-76
2023/03/04 06:31:42;;;;;;;8.70;2.33;;;;;;;5.70;66.95;100640.06;5140129;27;20092;-75
2023/03/04 06:34:08;;;;;;;11.03;2.27;;;;;;;5.53;67.49;100644.25;5140520;27;20261;-76
2023/03/04 06:36:33;;;;;;;11.73;3.92;;;;;;;5.63;67.17;100636.56;5139543;27;20678;-74
2023/03/04 06:39:02;;;;;;;9.15;2.40;;;;;;;5.58;67.63;100647.16;5139500;27;20375;-76
2023/03/04 06:41:27;;;;;;;8.73;2.83;;;;;;;5.51;68.28;100643.63;5140314;27;20104;-76
2023/03/04 06:43:53;;;;;;;12.63;2.78;;;;;;;5.57;67.47;100642.81;5139830;27;20551;-76
2023/03/04 06:46:19;;;;;;;11.25;2.72;;;;;;;5.64;67.62;100640.91;5140109;27;20037;-76
2023/03/04 06:48:44;;;;;;;10.20;2.38;;;;;;;5.57;67.67;100645.50;5137855;27;20302;-76
2023/03/04 06:51:12;;;;;;;7.83;1.93;;;;;;;5.61;67.56;100649.47;5139948;27;20338;-75
2023/03/04 06:53:38;;;;;;;15.00;1.95;;;;;;;5.70;67.09;100653.59;5139720;27;20267;-76
2023/03/04 06:56:04;;;;;;;8.70;3.25;;;;;;;5.61;68.04;100652.16;5139760;27;20030;-75
2023/03/04 06:58:29;;;;;;;6.88;1.45;;;;;;;5.76;67.54;100646.50;5139941;27;20464;-76
2023/03/04 07:00:55;;;;;;;13.52;3.25;;;;;;;5.81;67.11;100656.72;5140343;27;20061;-76
2023/03/04 07:03:21;;;;;;;8.53;3.97;;;;;;;5.81;67.28;100654.84;5139406;27;20066;-75
2023/03/04 07:05:46;;;;;;;22.17;2.95;;;;;;;5.76;67.40;100649.22;5139706;27;20266;-76
2023/03/04 07:08:12;;;;;;;9.77;2.40;;;;;;;5.65;67.35;100649.88;5138493;27;20035;-76
2023/03/04 07:10:37;;;;;;;11.52;2.60;;;;;;;5.77;67.31;100658.16;5139366;27;20399;-76
2023/03/04 07:13:02;;;;;;;5.57;1.60;;;;;;;5.74;67.48;100656.72;5140347;27;20027;-76
2023/03/04 07:15:28;;;;;;;8.88;2.25;;;;;;;5.88;67.01;100660.22;5139993;27;20377;-76
2023/03/04 07:17:53;;;;;;;12.15;2.45;;;;;;;5.84;67.48;100659.81;5138690;27;20070;-76
2023/03/04 07:20:19;;;;;;;7.00;2.00;;;;;;;5.77;67.34;100658.16;5139749;27;20493;-76
2023/03/04 07:22:44;;;;;;;11.00;3.45;;;;;;;5.80;67.56;100665.84;5139645;27;20029;-76
2023/03/04 07:25:10;;;;;;;6.35;2.03;;;;;;;5.85;67.31;100660.66;5139464;27;20042;-76
2023/03/04 07:27:37;;;;;;;14.13;2.63;;;;;;;5.72;67.31;100658.78;5138159;27;20476;-76
2023/03/04 07:30:06;;;;;;;9.15;1.98;;;;;;;5.84;67.77;100669.81;5139454;27;20130;-76
2023/03/04 07:32:33;;;;;;;9.02;1.77;;;;;;;5.82;67.74;100667.31;5139411;27;20038;-76
2023/03/04 07:34:58;;;;;;;6.53;1.50;;;;;;;5.62;68.27;100672.75;5138885;27;20036;-76
2023/03/04 07:37:23;;;;;;;4.65;1.27;;;;;;;5.67;68.78;100664.84;5138627;27;20047;-76
2023/03/04 07:39:49;;;;;;;6.43;1.50;;;;;;;5.71;68.54;100671.50;5138925;27;20384;-76
2023/03/04 07:42:14;;;;;;;9.13;1.85;;;;;;;5.66;68.64;100675.88;5138517;27;20289;-76
2023/03/04 07:44:39;;;;;;;5.20;1.17;;;;;;;5.68;68.50;100671.91;5139220;27;20368;-76
2023/03/04 07:47:04;;;;;;;10.80;2.93;;;;;;;5.81;68.53;100678.34;5138570;27;20035;-76
2023/03/04 07:49:30;;;;;;;8.30;2.00;;;;;;;5.99;68.12;100676.88;5138086;27;20711;-76
2023/03/04 07:51:55;;;;;;;6.23;1.73;;;;;;;5.98;68.28;100675.22;5138773;27;20993;-76
2023/03/04 07:54:20;;;;;;;4.63;1.67;;;;;;;5.76;68.12;100678.13;5138696;27;20262;-76
2023/03/04 07:56:46;;;;;;;9.85;1.27;;;;;;;5.75;68.96;100665.66;5138598;27;20286;-76
2023/03/04 07:59:11;;;;;;;9.43;1.50;;;;;;;5.88;69.00;100676.47;5137588;27;20042;-76
2023/03/04 08:01:36;;;;;;;10.07;3.60;;;;;;;5.89;69.05;100675.44;5138476;27;20424;-76
2023/03/04 08:04:04;;;;;;;6.60;1.55;;;;;;;5.81;69.72;100678.34;5136984;27;20274;-76
2023/03/04 08:06:30;;;;;;;5.25;1.42;;;;;;;5.94;69.72;100674.78;5138686;27;20037;-76
2023/03/04 08:09:00;;;;;;;3.72;1.10;;;;;;;5.93;70.27;100678.53;5136999;27;20023;-76
2023/03/04 08:11:28;;;;;;;12.80;2.60;;;;;;;6.06;70.07;100672.31;5134584;27;20430;-77
2023/03/04 08:13:53;;;;;;;20.27;2.05;;;;;;;6.10;70.18;100673.56;5137537;27;20295;-77
2023/03/04 08:16:21;;;;;;;5.50;2.13;;;;;;;6.18;69.19;100676.00;5136024;27;20727;-76
2023/03/04 08:18:48;;;;;;;8.77;1.40;;;;;;;6.19;69.91;100669.56;5133501;27;20114;-76
2023/03/04 08:21:20;;;;;;;6.20;1.88;;;;;;;6.27;69.46;100673.06;5138704;27;20023;-76
2023/03/04 08:23:46;;;;;;;7.90;2.40;;;;;;;6.23;69.51;100677.25;5139470;27;20441;-76
2023/03/04 08:26:22;;;;;;;6.47;2.13;;;;;;;6.28;68.83;100674.75;5139526;27;20065;-76
2023/03/04 08:28:47;;;;;;;7.40;2.35;;;;;;;6.22;69.21;100675.59;5137948;27;20091;-77
2023/03/04 08:31:14;;;;;;;8.10;2.13;;;;;;;6.37;69.02;100681.56;5137919;27;20446;-77
2023/03/04 08:33:40;;;;;;;13.27;2.67;;;;;;;6.24;69.44;100668.09;5138665;27;20027;-76
2023/03/04 08:36:06;;;;;;;10.95;3.63;;;;;;;6.21;69.09;100672.03;5139152;27;20113;-76
2023/03/04 08:38:31;;;;;;;6.35;2.08;;;;;;;6.31;69.29;100666.19;5138290;27;20225;-76
2023/03/04 08:40:57;;;;;;;13.00;3.15;;;;;;;6.45;68.93;100663.44;5138802;27;20038;-79
2023/03/04 08:43:24;;;;;;;7.07;2.70;;;;;;;6.60;68.22;100663.97;5139476;27;20693;-76
2023/03/04 08:45:51;;;;;;;7.25;2.38;;;;;;;6.56;68.35;100670.88;5137813;27;20464;-77
2023/03/04 08:48:17;;;;;;;7.85;4.00;;;;;;;6.70;68.07;100666.22;5138088;27;20069;-76
2023/03/04 08:50:43;;;;;;;8.18;2.55;;;;;;;6.73;68.22;100667.69;5138521;27;20621;-77
2023/03/04 08:53:09;;;;;;;11.15;2.15;;;;;;;6.79;67.88;100658.69;5137651;27;20083;-77
2023/03/04 08:55:37;;;;;;;22.27;4.57;;;;;;;6.64;67.62;100667.91;5138939;27;20428;-77
2023/03/04 08:58:02;;;;;;;8.50;2.78;;;;;;;6.53;68.77;100665.88;5138527;27;20071;-78
2023/03/04 09:00:28;;;;;;;18.00;4.32;;;;;;;6.68;68.71;100668.31;5139098;27;20054;-77
2023/03/04 09:02:54;;;;;;;8.60;2.78;;;;;;;6.61;68.89;100662.91;5139341;27;20035;-78
2023/03/04 09:05:20;;;;;;;12.27;2.92;;;;;;;6.75;68.38;100665.56;5138600;27;20033;-77
2023/03/04 09:07:46;;;;;;;7.43;2.47;;;;;;;6.88;68.12;100660.06;5137742;27;20023;-77
2023/03/04 09:10:12;;;;;;;12.20;3.67;;;;;;;6.87;67.85;100666.56;5138227;27;20039;-77
2023/03/04 09:12:37;;;;;;;11.70;3.80;;;;;;;6.99;67.46;100657.72;5139734;27;20057;-77
2023/03/04 09:15:04;;;;;;;10.30;3.05;;;;;;;6.92;67.62;100667.75;5142486;27;20038;-77
2023/03/04 09:17:30;;;;;;;7.22;2.97;;;;;;;6.97;67.52;100665.22;5142252;27;20075;-76
2023/03/04 09:19:55;;;;;;;11.68;4.13;;;;;;;6.88;67.80;100662.78;5142103;27;20019;-77
2023/03/04 09:22:20;;;;;;;15.07;5.90;;;;;;;6.94;67.72;100657.53;5143192;27;20429;-77
2023/03/04 09:24:46;;;;;;;8.83;4.43;;;;;;;6.98;67.84;100669.59;5141907;27;20266;-77
2023/03/04 09:27:11;;;;;;;10.27;4.37;;;;;;;7.04;68.07;100657.88;5142004;27;20266;-77
2023/03/04 09:29:36;;;;;;;14.77;5.13;;;;;;;6.86;68.35;100664.88;5140183;27;20671;-77
2023/03/04 09:32:01;;;;;;;11.30;5.30;;;;;;;6.76;69.43;100664.53;5141107;27;20258;-77
2023/03/04 09:34:27;;;;;;;13.87;4.87;;;;;;;6.87;69.93;100663.84;5141171;27;20251;-77
2023/03/04 09:36:52;;;;;;;13.27;5.05;;;;;;;6.67;70.78;100676.66;5140669;27;20274;-77
2023/03/04 09:39:17;;;;;;;13.07;5.17;;;;;;;6.69;71.35;100675.38;5141080;27;20181;-76
2023/03/04 09:41:46;;;;;;;9.30;4.65;;;;;;;6.67;72.22;100668.53;5142045;27;20265;-76
2023/03/04 09:44:21;;;;;;;10.82;4.15;;;;;;;6.72;72.94;100672.25;5141877;27;20571;-77
2023/03/04 09:46:48;;;;;;;14.63;5.15;;;;;;;6.54;74.03;100678.38;5141136;27;20023;-76
2023/03/04 09:49:16;;;;;;;8.35;4.28;;;;;;;6.65;74.81;100666.84;5139523;27;20080;-77
2023/03/04 09:51:48;;;;;;;14.63;5.70;;;;;;;6.40;75.18;100667.63;5142293;27;20035;-77
2023/03/04 09:54:40;;;;;;;9.05;4.70;;;;;;;6.56;75.60;100657.34;5140622;27;20068;-77
2023/03/04 09:57:18;;;;;;;12.23;4.90;;;;;;;6.84;74.50;100661.56;5141008;27;20093;-77
2023/03/04 10:00:08;;;;;;;12.32;5.88;;;;;;;6.73;74.54;100659.53;5140021;27;20073;-77
2023/03/04 10:03:02;;;;;;;11.45;5.88;;;;;;;6.81;74.64;100656.59;5140387;27;20482;-76
2023/03/04 10:05:31;;;;;;;8.68;3.47;;;;;;;6.75;75.14;100668.28;5141092;27;20058;-77
2023/03/04 10:07:59;;;;;;;10.10;4.80;;;;;;;6.63;75.42;100660.81;5140142;27;20102;-77
2023/03/04 10:10:32;;;;;;;13.90;5.97;;;;;;;6.81;74.78;100650.31;5141143;27;20043;-77
2023/03/04 10:13:00;;;;;;;10.30;4.97;;;;;;;6.79;75.06;100661.38;5140755;27;20038;-77
2023/03/04 10:15:38;;;;;;;9.18;4.18;;;;;;;6.76;75.65;100659.09;5140389;27;20034;-77
2023/03/04 10:18:35;;;;;;;8.38;3.88;;;;;;;6.60;77.11;100658.56;5140079;27;20050;-77
2023/03/04 10:21:18;;;;;;;12.05;4.82;;;;;;;6.58;77.67;100652.53;5140953;27;20043;-77
2023/03/04 10:23:44;;;;;;;12.80;5.75;;;;;;;6.24;78.09;100659.97;5141124;27;20444;-76
2023/03/04 10:26:15;;;;;;;18.40;5.45;;;;;;;6.04;80.32;100658.94;5140411;27;20035;-77
2023/03/04 10:28:41;;;;;;;13.98;5.80;;;;;;;6.11;80.71;100655.41;5141058;27;20030;-78
2023/03/04 10:31:07;;;;;;;13.73;5.90;;;;;;;6.23;79.93;100642.88;5141529;27;20066;-77
2023/03/04 10:33:39;;;;;;;9.97;4.67;;;;;;;6.52;79.45;100648.81;5139629;27;20058;-77
2023/03/04 10:36:25;;;;;;;16.85;7.22;;;;;;;6.41;79.59;100652.19;5141009;27;20034;-77
2023/03/04 10:38:57;;;;;;;13.07;6.32;;;;;;;6.47;80.01;100645.91;5113338;27;20126;-77
2023/03/04 10:41:26;;;;;;;17.20;5.93;;;;;;;6.51;79.27;100647.13;5140726;27;20023;-77
2023/03/04 10:44:09;;;;;;;19.23;7.32;;;;;;;6.36;80.07;100655.53;5140822;27;20053;-77
2023/03/04 10:46:42;;;;;;;16.10;7.18;;;;;;;5.60;82.43;100653.19;5140720;27;20138;-77
2023/03/04 10:49:15;;;;;;;13.23;6.72;;;;;;;5.96;82.21;100657.28;5138378;27;20035;-77
2023/03/04 10:51:49;;;;;;;12.73;5.75;;;;;;;6.26;82.18;100655.16;5140352;27;20034;-77
2023/03/04 10:54:39;;;;;;;13.10;6.75;;;;;;;6.50;81.73;100644.66;5140144;27;20031;-76
2023/03/04 10:57:14;;;;;;;15.77;7.97;;;;;;;6.62;80.93;100642.91;5139892;27;20103;-77
2023/03/04 10:59:49;;;;;;;18.98;7.60;;;;;;;6.57;80.68;100642.72;5138903;27;20114;-77
2023/03/04 11:02:19;;;;;;;9.68;5.05;;;;;;;6.57;80.75;100639.19;5139980;27;20113;-77
2023/03/04 11:04:52;;;;;;;15.93;5.65;;;;;;;6.71;79.72;100629.94;5139420;27;20077;-77
2023/03/04 11:07:18;;;;;;;10.45;5.18;;;;;;;6.75;80.29;100636.56;5138063;27;20774;-76
2023/03/04 11:09:44;;;;;;;28.02;7.78;;;;;;;6.57;80.34;100641.91;5139552;27;20388;-77
2023/03/04 11:12:12;;;;;;;9.88;4.50;;;;;;;6.62;80.15;100640.22;5140263;27;20027;-77
2023/03/04 11:14:51;;;;;;;12.52;4.78;;;;;;;6.60;80.07;100639.59;5138965;27;20050;-76
2023/03/04 11:17:25;;;;;;;11.48;3.78;;;;;;;6.65;79.88;100633.53;5139506;27;20114;-77
2023/03/04 11:20:12;;;;;;;8.80;4.43;;;;;;;6.56;80.17;100627.53;5138691;27;20070;-77
2023/03/04 11:22:38;;;;;;;10.90;5.18;;;;;;;6.62;80.55;100634.78;5138797;27;20039;-77
2023/03/04 11:25:22;;;;;;;8.98;3.70;;;;;;;6.73;80.10;100627.81;5139827;27;20030;-77
2023/03/04 11:27:52;;;;;;;10.43;4.20;;;;;;;6.69;79.85;100631.22;5139146;27;20034;-77
2023/03/04 11:30:42;;;;;;;11.35;5.30;;;;;;;6.80;79.64;100616.13;5138471;27;20031;-77